Latest Weather Observations for Perth Airport

IDW60801

Issued at 4:05 pm WST Friday 31 October 2014 (issued every 30 minutes, with the page automatically refreshed every 10 minutes)

About weather observations | Map of weather stations | Latest weather observations for WA | Other Formats
Station Details ID: 009021 Name: PERTH AIRPORT Lat: -31.93 Lon: 115.98 Height: 15.4 m
Data from the previous 72 hours. | See also: Recent months at Perth Airport
Date/Time
WST
Temp
°C
App
Temp
°C
Dew
Point
Rel
Hum
%
Delta-T
°C
Wind Press
QNH
hPa
Press
MSL
hPa
Rain
since 9 am
mm
Dir
 
Spd
km/h
Gust
km/h
Spd
kts
Gust
kts
31/04:00pm 22.5 17.1 7.8 38 7.7 SW 26 32 14 17 1015.5 - 0.2
31/03:30pm 23.4 18.3 7.5 36 8.3 WSW 24 33 13 18 1015.5 - 0.2
31/03:00pm 22.9 17.8 7.8 38 7.9 SW 24 33 13 18 1015.4 1015.4 0.2
31/02:30pm 22.2 17.3 8.6 41 7.2 WSW 24 33 13 18 1015.5 - 0.2
31/02:00pm 21.6 15.4 8.0 41 7.1 WSW 30 35 16 19 1015.7 - 0.2
31/01:30pm 23.2 17.3 5.8 32 8.8 W 26 33 14 18 1015.8 - 0.2
31/01:00pm 23.6 20.5 3.4 26 9.8 NW 9 13 5 7 1016.0 - 0.2
31/12:30pm 23.5 20.2 4.5 29 9.4 NE 11 19 6 10 1016.1 - 0.2
31/12:00pm 22.9 19.2 4.4 30 9.1 SW 13 15 7 8 1016.2 1016.2 0.2
31/11:30am 22.1 18.5 4.9 32 8.5 SW 13 19 7 10 1016.4 - 0.2
31/11:00am 21.1 17.3 4.1 32 8.2 S 13 22 7 12 1016.7 - 0.2
31/10:30am 20.0 16.7 4.7 36 7.4 WSW 11 19 6 10 1017.0 - 0.2
31/10:00am 19.0 13.7 2.1 32 7.7 SSW 19 26 10 14 1017.1 - 0.2
31/09:30am 19.5 15.7 5.7 40 6.8 S 15 24 8 13 1017.0 - 0.2
31/09:00am 18.8 14.4 6.6 45 6.1 S 19 26 10 14 1017.1 1017.1 1.0
31/08:30am 18.3 13.8 6.9 47 5.7 S 20 28 11 15 1017.0 - 1.0
31/08:00am 17.2 11.8 8.2 55 4.6 S 26 33 14 18 1017.0 - 1.0
31/07:30am 16.6 12.4 11.0 69 3.0 S 24 32 13 17 1016.8 - 1.0
31/07:00am 15.5 12.0 12.2 81 1.8 S 22 28 12 15 1016.4 - 1.0
31/06:30am 15.0 11.3 12.6 85 1.3 S 24 30 13 16 1016.2 - 1.0
31/06:00am 14.9 11.2 12.7 87 1.2 S 24 30 13 16 1015.7 1015.7 1.0
31/05:30am 14.8 11.6 13.2 90 0.9 S 22 32 12 17 1015.4 - 1.0
31/05:00am 14.7 12.1 13.3 91 0.8 S 19 26 10 14 1014.9 - 1.0
31/04:30am 14.9 10.7 13.6 92 0.7 S 28 35 15 19 1014.7 - 1.0
31/04:25am 14.9 10.8 13.8 93 0.6 S 28 37 15 20 1014.6 - 1.0
31/04:00am 15.7 11.1 14.5 93 0.7 SSW 32 41 17 22 1014.1 - 0.8
31/03:58am 15.8 10.9 14.2 90 0.9 SSW 33 41 18 22 1014.1 - 0.6
31/03:30am 15.6 17.0 14.4 93 0.7 CALM 0 4 0 2 1013.7 - 0.2
31/03:00am 15.5 14.8 14.3 92 0.7 SSW 11 15 6 8 1013.8 1013.8 0.2
31/02:30am 16.6 15.6 12.2 75 2.4 SSW 9 13 5 7 1013.8 - 0.2
31/02:00am 16.0 15.1 12.7 81 1.8 WSW 9 11 5 6 1013.7 - 0.2
31/01:30am 15.5 14.5 12.4 82 1.7 WSW 9 11 5 6 1013.8 - 0.2
31/01:00am 15.7 14.0 12.4 81 1.8 WSW 13 17 7 9 1014.1 - 0.2
31/12:30am 16.1 13.9 13.2 83 1.6 SSW 17 26 9 14 1014.5 - 0.2
31/12:00am 16.8 14.9 11.7 72 2.8 SW 13 17 7 9 1014.6 1014.6 0.2
 
Date/Time
WST
Temp
°C
App
Temp
°C
Dew
Point
Rel
Hum
%
Delta-T
°C
Wind Press
QNH
hPa
Press
MSL
hPa
Rain
since 9 am
mm
Dir
 
Spd
km/h
Gust
km/h
Spd
kts
Gust
kts
30/11:30pm 16.4 14.2 12.2 76 2.3 SW 15 20 8 11 1014.8 - 0.2
30/11:00pm 16.7 13.9 13.1 79 2.0 SW 20 30 11 16 1015.1 - 0.2
30/10:30pm 17.4 14.3 11.7 69 3.1 WSW 19 28 10 15 1015.0 - 0.2
30/10:00pm 17.7 14.6 12.1 69 3.1 SW 20 32 11 17 1015.2 - 0.2
30/09:30pm 17.3 14.2 11.6 69 3.1 SW 19 24 10 13 1015.3 - 0.2
30/09:00pm 17.9 14.0 10.8 63 3.8 SW 22 28 12 15 1015.4 1015.4 0.2
30/08:30pm 18.1 14.4 10.0 59 4.3 SW 20 28 11 15 1015.3 - 0.2
30/08:00pm 18.2 14.3 8.5 53 5.0 SW 19 30 10 16 1015.2 - 0.2
30/07:30pm 18.3 12.7 8.9 54 4.9 SW 28 37 15 20 1015.0 - 0.2
30/07:00pm 18.0 13.6 10.3 60 4.1 SW 24 33 13 18 1014.8 - 0.2
30/06:30pm 18.2 13.0 10.3 60 4.2 WSW 28 35 15 19 1014.5 - 0.2
30/06:00pm 18.4 13.2 10.4 59 4.3 SW 28 37 15 20 1014.2 1014.2 0.2
30/05:30pm 18.7 13.8 10.1 57 4.6 WSW 26 33 14 18 1014.0 - 0.2
30/05:00pm 19.1 14.3 9.0 52 5.3 WSW 24 37 13 20 1014.0 - 0.2
30/04:30pm 19.3 13.4 9.2 52 5.3 WSW 30 35 16 19 1013.9 - 0.2
30/04:00pm 19.1 13.7 9.5 53 5.1 W 28 39 15 21 1013.9 - 0.2
30/03:30pm 20.5 15.3 8.9 47 6.1 WSW 26 35 14 19 1013.7 - 0.2
30/03:00pm 20.5 15.3 10.1 51 5.6 WSW 28 39 15 21 1013.5 1013.5 0.2
30/02:30pm 19.8 14.3 10.4 54 5.1 WSW 30 39 16 21 1013.6 - 0.2
30/02:00pm 21.5 15.7 9.6 46 6.4 WSW 30 41 16 22 1013.4 - 0.2
30/01:30pm 21.1 16.1 9.5 47 6.2 W 26 37 14 20 1013.5 - 0.2
30/01:00pm 21.0 16.4 9.6 48 6.1 W 24 32 13 17 1013.6 - 0.2
30/12:30pm 21.3 17.0 10.9 51 5.7 WSW 24 33 13 18 1013.9 - 0.2
30/12:00pm 20.3 15.9 11.8 58 4.7 WSW 26 35 14 19 1014.1 1014.1 0.2
30/11:30am 19.9 16.5 12.4 62 4.2 WSW 22 30 12 16 1013.9 - 0.2
30/11:00am 20.2 17.9 13.0 63 4.1 SW 17 30 9 16 1013.8 - 0.2
30/10:30am 20.1 17.9 13.3 65 3.9 SSW 17 24 9 13 1014.0 - 0.2
30/10:00am 19.1 17.4 13.5 70 3.2 SSW 15 24 8 13 1014.4 - 0.0
30/09:30am 18.6 16.4 13.3 71 3.0 SW 17 26 9 14 1014.6 - 0.0
30/09:00am 17.9 16.5 13.3 74 2.6 SW 13 19 7 10 1014.7 1014.7 0.6
30/08:51am 17.5 15.7 13.2 76 2.4 SW 15 19 8 10 1014.7 - 0.6
30/08:30am 16.8 15.2 12.8 77 2.2 WSW 13 19 7 10 1014.7 - 0.6
30/08:00am 16.3 15.0 12.5 78 2.1 SSW 11 19 6 10 1014.5 - 0.6
30/07:30am 15.7 14.7 12.2 80 1.9 SSW 9 13 5 7 1014.5 - 0.6
30/07:00am 15.2 13.3 11.9 81 1.8 SSW 13 15 7 8 1014.4 - 0.6
30/06:30am 14.6 12.3 11.6 82 1.6 S 15 20 8 11 1014.3 - 0.6
30/06:00am 14.5 11.7 11.5 82 1.6 S 17 22 9 12 1014.2 1014.2 0.6
30/05:30am 14.6 11.9 11.8 83 1.5 SSW 17 24 9 13 1014.1 - 0.6
30/05:00am 14.7 12.9 12.1 84 1.4 SSW 13 17 7 9 1013.7 - 0.6
30/04:40am 14.5 13.1 12.1 85 1.3 SSW 11 13 6 7 1013.6 - 0.6
30/04:30am 14.4 12.6 12.2 87 1.2 S 13 13 7 7 1013.5 - 0.6
30/04:00am 15.0 13.0 12.8 87 1.2 S 15 19 8 10 1013.4 - 0.6
30/03:30am 15.2 13.4 13.4 89 1.0 S 15 17 8 9 1013.4 - 0.6
30/03:00am 16.3 14.7 13.8 85 1.4 SSW 15 19 8 10 1013.4 1013.4 0.6
30/02:30am 16.0 14.4 13.9 87 1.2 SSW 15 20 8 11 1013.2 - 0.6
30/02:00am 16.4 15.2 13.9 85 1.4 SW 13 19 7 10 1013.2 - 0.6
30/01:30am 16.7 15.5 14.1 85 1.5 SSW 13 19 7 10 1013.0 - 0.6
30/01:00am 17.2 15.3 14.2 82 1.7 SSW 17 26 9 14 1013.3 - 0.6
30/12:30am 17.7 15.9 14.4 81 1.9 SSW 17 24 9 13 1013.4 - 0.6
30/12:00am 17.9 15.8 14.6 81 1.9 SW 19 24 10 13 1013.5 1013.5 0.6
 
Date/Time
WST
Temp
°C
App
Temp
°C
Dew
Point
Rel
Hum
%
Delta-T
°C
Wind Press
QNH
hPa
Press
MSL
hPa
Rain
since 9 am
mm
Dir
 
Spd
km/h
Gust
km/h
Spd
kts
Gust
kts
29/11:30pm 17.9 16.6 14.8 82 1.8 SW 15 19 8 10 1013.7 - 0.6
29/11:00pm 18.0 16.7 14.9 82 1.8 SW 15 20 8 11 1013.8 - 0.6
29/10:30pm 18.1 17.0 15.2 83 1.7 SSW 15 19 8 10 1013.6 - 0.6
29/10:00pm 18.0 16.4 15.1 83 1.7 SSW 17 20 9 11 1013.8 - 0.6
29/09:30pm 18.3 16.3 15.0 81 1.9 SW 19 26 10 14 1013.7 - 0.6
29/09:00pm 18.4 16.5 15.3 82 1.8 SSW 19 28 10 15 1013.4 1013.4 0.6
29/08:30pm 18.8 16.4 15.4 80 2.0 SSW 22 30 12 16 1013.2 - 0.6
29/08:00pm 19.0 16.4 15.8 82 1.9 SSW 24 28 13 15 1012.9 - 0.6
29/07:30pm 19.7 18.0 15.7 78 2.4 SW 19 28 10 15 1013.2 - 0.6
29/07:00pm 20.6 18.6 15.6 73 3.0 WSW 20 30 11 16 1012.8 - 0.6
29/06:30pm 22.0 20.6 15.5 66 3.9 WSW 17 24 9 13 1012.1 - 0.6
29/06:00pm 22.8 21.8 15.6 64 4.3 WSW 15 22 8 12 1011.8 1011.8 0.6
29/05:30pm 23.6 21.5 15.3 59 5.0 WSW 20 28 11 15 1012.0 - 0.6
29/05:00pm 22.6 21.0 16.0 66 4.0 W 19 26 10 14 1012.0 - 0.6
29/04:30pm 23.5 21.9 16.5 65 4.3 NW 20 28 11 15 1012.1 - 0.6
29/04:00pm 22.7 19.3 17.7 73 3.1 SW 32 39 17 21 1010.9 - 0.6
29/03:30pm 24.6 22.0 15.9 58 5.3 W 24 33 13 18 1012.2 - 0.0
29/03:00pm 26.7 24.2 16.1 52 6.5 W 24 32 13 17 1011.5 1011.5 0.0
29/02:30pm 27.3 25.2 16.1 50 6.9 W 22 30 12 16 1011.4 - 0.0
29/02:00pm 27.1 24.1 15.9 50 6.9 W 26 32 14 17 1011.8 - 0.0
29/01:30pm 27.0 24.7 15.7 50 6.9 W 22 30 12 16 1011.9 - 0.0
29/01:00pm 27.8 25.4 15.3 46 7.6 WSW 22 28 12 15 1012.2 - 0.0
29/12:30pm 26.7 24.0 14.7 47 7.2 WSW 22 32 12 17 1012.0 - 0.0
29/12:00pm 27.8 24.9 12.8 39 8.8 SSW 20 26 11 14 1012.1 1012.1 0.0
29/11:30am 26.7 23.8 13.0 42 8.0 SSW 20 32 11 17 1012.4 - 0.0
29/11:00am 26.3 24.0 12.9 43 7.8 S 17 22 9 12 1012.9 - 0.0
29/10:30am 25.4 23.7 13.5 47 7.0 SSW 15 22 8 12 1013.3 - 0.0
29/10:00am 23.6 21.8 13.4 52 5.9 SW 15 19 8 10 1013.7 - 0.0
29/09:30am 22.6 21.1 13.2 55 5.4 SW 13 19 7 10 1013.4 - 0.0
29/09:00am 22.3 20.9 13.3 56 5.2 SSW 13 17 7 9 1013.5 1013.5 0.0
29/08:30am 21.7 20.1 12.9 57 5.0 SSW 13 19 7 10 1013.2 - 0.0
29/08:00am 21.8 19.5 12.9 57 5.1 S 17 20 9 11 1013.0 - 0.0
29/07:30am 20.2 17.9 13.0 63 4.1 S 17 19 9 10 1013.0 - 0.0
29/07:00am 18.3 17.2 13.2 72 2.9 SSW 11 15 6 8 1013.2 - 0.0
29/06:30am 17.4 15.6 13.3 77 2.3 S 15 20 8 11 1013.0 - 0.0
29/06:00am 17.8 16.3 13.0 73 2.7 SSW 13 17 7 9 1013.3 1013.3 0.0
29/05:30am 17.2 16.1 13.1 77 2.3 S 11 15 6 8 1012.6 - 0.0
29/05:00am 17.8 16.1 12.6 71 2.9 S 13 15 7 8 1012.4 - 0.0
29/04:30am 18.0 16.3 12.6 70 3.0 WSW 13 17 7 9 1012.4 - 0.0
29/04:00am 18.1 15.8 12.9 71 2.9 S 17 22 9 12 1011.6 - 0.0
29/03:30am 18.5 16.2 13.0 70 3.1 S 17 20 9 11 1011.8 - 0.0
29/03:00am 18.6 16.4 13.3 71 3.0 SSW 17 20 9 11 1011.8 1011.8 0.0
29/02:30am 18.6 16.6 13.9 74 2.7 SSW 17 20 9 11 1011.3 - 0.0
29/02:00am 18.3 16.8 14.3 77 2.3 SSW 15 17 8 9 1011.3 - 0.0
29/01:30am 18.2 16.5 14.8 80 2.0 S 17 20 9 11 1011.3 - 0.0
29/01:00am 18.6 17.2 14.6 77 2.3 S 15 19 8 10 1012.0 - 0.0
29/12:30am 18.3 16.9 14.5 78 2.2 S 15 17 8 9 1012.3 - 0.0
29/12:00am 19.3 18.3 14.5 74 2.8 SSW 13 15 7 8 1012.7 1012.7 0.0
 
Date/Time
WST
Temp
°C
App
Temp
°C
Dew
Point
Rel
Hum
%
Delta-T
°C
Wind Press
QNH
hPa
Press
MSL
hPa
Rain
since 9 am
mm
Dir
 
Spd
km/h
Gust
km/h
Spd
kts
Gust
kts
28/11:30pm 19.6 18.5 14.2 71 3.1 SSW 13 17 7 9 1012.7 - 0.0
28/11:00pm 19.8 18.6 14.1 69 3.3 SSW 13 17 7 9 1012.8 - 0.0
28/10:30pm 19.8 19.2 14.7 72 3.0 S 11 15 6 8 1012.8 - 0.0
28/10:00pm 20.5 18.8 13.7 65 3.9 SSW 15 19 8 10 1013.0 - 0.0
28/09:30pm 20.9 18.3 13.8 64 4.1 SSW 20 28 11 15 1012.9 - 0.0
28/09:00pm 21.2 17.8 13.8 62 4.3 S 24 28 13 15 1013.0 1013.0 0.0
28/08:30pm 21.8 19.4 13.9 61 4.6 SSW 19 24 10 13 1013.0 - 0.0
28/08:00pm 22.6 19.5 14.4 60 4.8 SSW 24 32 13 17 1012.8 - 0.0
28/07:30pm 23.3 19.6 15.1 60 4.9 S 28 35 15 19 1012.5 - 0.0
28/07:00pm 24.2 20.7 15.6 58 5.2 S 28 32 15 17 1012.2 - 0.0
28/06:30pm 25.6 22.9 15.6 54 6.1 SSW 24 32 13 17 1012.0 - 0.0
28/06:00pm 27.0 23.2 14.7 47 7.4 SSW 28 33 15 18 1011.7 1011.7 0.0
28/05:30pm 29.0 24.7 12.2 35 9.8 S 26 32 14 17 1011.7 - 0.0
28/05:00pm 29.9 26.0 12.1 33 10.4 S 24 32 13 17 1011.7 - 0.0
28/04:30pm 29.2 26.2 12.7 36 9.7 SSW 20 28 11 15 1011.8 - 0.0

Other Formats:

Comma delimited format used in spreadsheet applications
http://www.bom.gov.au/fwo/IDW60801/IDW60801.94610.axf

JavaScript Object Notation format (JSON) in row-major order
http://www.bom.gov.au/fwo/IDW60801/IDW60801.94610.json